sensor_id;sensor_type;location;lat;lon;timestamp;pressure;altitude;pressure_sealevel;temperature;humidity
37758;BME280;23599;50.304;18.928;2022-08-21T00:00:31;101276.44;;;23.46;76.96
37758;BME280;23599;50.304;18.928;2022-08-21T00:00:56;101274.71;;;23.45;76.96
37758;BME280;23599;50.304;18.928;2022-08-21T00:01:32;101276.44;;;23.46;76.91
37758;BME280;23599;50.304;18.928;2022-08-21T00:01:37;101279.20;;;23.46;76.90
37758;BME280;23599;50.304;18.928;2022-08-21T00:02:12;101278.13;;;23.47;76.91
37758;BME280;23599;50.304;18.928;2022-08-21T00:02:26;101268.11;;;23.46;76.87
37758;BME280;23599;50.304;18.928;2022-08-21T00:02:50;101277.28;;;23.47;76.82
37758;BME280;23599;50.304;18.928;2022-08-21T00:03:04;101275.35;;;23.47;76.90
37758;BME280;23599;50.304;18.928;2022-08-21T00:03:29;101276.20;;;23.48;76.86
37758;BME280;23599;50.304;18.928;2022-08-21T00:04:03;101281.73;;;23.48;76.83
37758;BME280;23599;50.304;18.928;2022-08-21T00:04:33;101281.73;;;23.48;76.79
37758;BME280;23599;50.304;18.928;2022-08-21T00:04:59;101278.97;;;23.48;76.80
37758;BME280;23599;50.304;18.928;2022-08-21T00:05:16;101264.29;;;23.34;76.77
37758;BME280;23599;50.304;18.928;2022-08-21T00:05:24;101268.95;;;23.47;76.80
37758;BME280;23599;50.304;18.928;2022-08-21T00:05:43;101278.97;;;23.48;76.89
37758;BME280;23599;50.304;18.928;2022-08-21T00:06:00;101274.26;;;23.48;76.79
37758;BME280;23599;50.304;18.928;2022-08-21T00:06:20;101269.59;;;23.49;76.76
37758;BME280;23599;50.304;18.928;2022-08-21T00:06:38;101270.44;;;23.49;76.76
37758;BME280;23599;50.304;18.928;2022-08-21T00:07:12;101265.73;;;23.50;76.77
37758;BME280;23599;50.304;18.928;2022-08-21T00:07:30;101266.59;;;23.50;76.82
37758;BME280;23599;50.304;18.928;2022-08-21T00:20:55;101254.79;;;23.61;76.25
37758;BME280;23599;50.304;18.928;2022-08-21T00:29:51;101251.77;;;23.70;75.66
37758;BME280;23599;50.304;18.928;2022-08-21T00:30:52;101249.88;;;23.70;75.69
37758;BME280;23599;50.304;18.928;2022-08-21T00:37:11;101238.36;;;23.73;75.40
37758;BME280;23599;50.304;18.928;2022-08-21T00:41:57;101236.63;;;23.72;75.09
37758;BME280;23599;50.304;18.928;2022-08-21T00:42:55;101238.36;;;23.73;75.15
37758;BME280;23599;50.304;18.928;2022-08-21T00:42:56;101235.79;;;23.72;75.15
37758;BME280;23599;50.304;18.928;2022-08-21T00:43:10;101231.09;;;23.72;75.03
37758;BME280;23599;50.304;18.928;2022-08-21T00:47:19;101234.90;;;23.71;74.91
37758;BME280;23599;50.304;18.928;2022-08-21T00:52:32;101224.69;;;23.72;74.91
37758;BME280;23599;50.304;18.928;2022-08-21T00:53:05;101231.09;;;23.72;74.98
37758;BME280;23599;50.304;18.928;2022-08-21T00:55:02;101226.59;;;23.71;75.15
37758;BME280;23599;50.304;18.928;2022-08-21T00:55:19;101223.81;;;23.71;75.17
37758;BME280;23599;50.304;18.928;2022-08-21T00:55:35;101226.80;;;23.70;75.22
37758;BME280;23599;50.304;18.928;2022-08-21T00:56:09;101225.09;;;23.69;75.21
37758;BME280;23599;50.304;18.928;2022-08-21T00:56:34;101223.62;;;23.66;75.20
37758;BME280;23599;50.304;18.928;2022-08-21T00:56:57;101229.17;;;23.66;75.23
37758;BME280;23599;50.304;18.928;2022-08-21T00:57:10;101224.70;;;23.65;75.25
37758;BME280;23599;50.304;18.928;2022-08-21T00:57:36;101218.52;;;23.63;75.34
37758;BME280;23599;50.304;18.928;2022-08-21T00:58:39;101225.75;;;23.64;75.41
37758;BME280;23599;50.304;18.928;2022-08-21T00:59:01;101225.99;;;23.62;75.40
37758;BME280;23599;50.304;18.928;2022-08-21T00:59:22;101223.42;;;23.61;75.37
37758;BME280;23599;50.304;18.928;2022-08-21T00:59:52;101221.94;;;23.58;75.39
37758;BME280;23599;50.304;18.928;2022-08-21T01:00:05;101224.71;;;23.58;75.41
37758;BME280;23599;50.304;18.928;2022-08-21T01:00:29;101216.63;;;23.57;75.48
37758;BME280;23599;50.304;18.928;2022-08-21T01:00:46;101224.31;;;23.55;75.49
37758;BME280;23599;50.304;18.928;2022-08-21T01:01:08;101215.34;;;23.53;75.58
37758;BME280;23599;50.304;18.928;2022-08-21T01:01:33;101223.03;;;23.51;75.64
37758;BME280;23599;50.304;18.928;2022-08-21T01:02:22;101216.69;;;23.43;75.82
37758;BME280;23599;50.304;18.928;2022-08-21T01:04:06;101214.77;;;23.37;76.09
37758;BME280;23599;50.304;18.928;2022-08-21T01:04:34;101216.69;;;23.37;76.13
37758;BME280;23599;50.304;18.928;2022-08-21T01:04:45;101213.27;;;23.35;76.21
37758;BME280;23599;50.304;18.928;2022-08-21T01:05:36;101214.16;;;23.29;76.36
37758;BME280;23599;50.304;18.928;2022-08-21T01:06:31;101210.98;;;23.25;76.61
37758;BME280;23599;50.304;18.928;2022-08-21T01:06:55;101209.25;;;23.24;76.67
37758;BME280;23599;50.304;18.928;2022-08-21T01:07:20;101209.50;;;23.22;76.77
37758;BME280;23599;50.304;18.928;2022-08-21T01:07:33;101206.92;;;23.21;76.81
37758;BME280;23599;50.304;18.928;2022-08-21T01:08:18;101206.07;;;23.20;76.87
37758;BME280;23599;50.304;18.928;2022-08-21T01:08:29;101199.04;;;23.18;77.00
37758;BME280;23599;50.304;18.928;2022-08-21T01:08:44;101205.44;;;23.18;76.98
37758;BME280;23599;50.304;18.928;2022-08-21T01:09:04;101197.55;;;23.15;77.11
37758;BME280;23599;50.304;18.928;2022-08-21T01:09:17;101202.86;;;23.17;77.05
37758;BME280;23599;50.304;18.928;2022-08-21T01:09:40;101201.18;;;23.16;77.13
37758;BME280;23599;50.304;18.928;2022-08-21T01:10:07;101196.70;;;23.15;77.19
37758;BME280;23599;50.304;18.928;2022-08-21T01:10:34;101187.74;;;23.13;77.26
37758;BME280;23599;50.304;18.928;2022-08-21T01:10:43;101195.43;;;23.11;77.27
37758;BME280;23599;50.304;18.928;2022-08-21T01:10:59;101195.43;;;23.11;77.28
37758;BME280;23599;50.304;18.928;2022-08-21T01:11:28;101195.43;;;23.11;77.33
37758;BME280;23599;50.304;18.928;2022-08-21T01:11:58;101198.44;;;23.09;77.38
37758;BME280;23599;50.304;18.928;2022-08-21T01:12:37;101193.30;;;23.06;77.47
37758;BME280;23599;50.304;18.928;2022-08-21T01:13:03;101190.77;;;23.05;77.52
37758;BME280;23599;50.304;18.928;2022-08-21T01:13:32;101193.73;;;23.03;77.63
37758;BME280;23599;50.304;18.928;2022-08-21T01:13:56;101190.12;;;23.03;77.77
37758;BME280;23599;50.304;18.928;2022-08-21T01:18:05;101183.50;;;22.90;77.99
37758;BME280;23599;50.304;18.928;2022-08-21T01:28:36;101184.17;;;22.66;79.38
37758;BME280;23599;50.304;18.928;2022-08-21T01:28:55;101190.56;;;22.66;79.45
37758;BME280;23599;50.304;18.928;2022-08-21T01:54:16;101137.52;;;22.43;81.85
37758;BME280;23599;50.304;18.928;2022-08-21T01:54:26;101136.46;;;22.44;81.86
37758;BME280;23599;50.304;18.928;2022-08-21T01:54:53;101136.46;;;22.44;81.87
37758;BME280;23599;50.304;18.928;2022-08-21T02:01:07;101123.89;;;22.41;81.96
37758;BME280;23599;50.304;18.928;2022-08-21T02:01:16;101122.17;;;22.40;81.95
37758;BME280;23599;50.304;18.928;2022-08-21T02:03:33;101123.45;;;22.38;81.92
37758;BME280;23599;50.304;18.928;2022-08-21T02:04:16;101121.76;;;22.37;82.01
37758;BME280;23599;50.304;18.928;2022-08-21T02:04:40;101115.38;;;22.36;82.10
37758;BME280;23599;50.304;18.928;2022-08-21T02:04:47;101116.42;;;22.35;82.13
37758;BME280;23599;50.304;18.928;2022-08-21T02:05:16;101119.18;;;22.35;82.20
37758;BME280;23599;50.304;18.928;2022-08-21T02:05:33;101114.73;;;22.34;82.11
37758;BME280;23599;50.304;18.928;2022-08-21T02:05:56;101115.58;;;22.34;82.31
37758;BME280;23599;50.304;18.928;2022-08-21T02:06:13;101117.50;;;22.34;82.35
37758;BME280;23599;50.304;18.928;2022-08-21T02:06:43;101119.43;;;22.33;82.44
37758;BME280;23599;50.304;18.928;2022-08-21T02:07:06;101112.16;;;22.32;82.53
37758;BME280;23599;50.304;18.928;2022-08-21T02:07:36;101120.47;;;22.32;82.53
37758;BME280;23599;50.304;18.928;2022-08-21T02:08:12;101102.14;;;22.25;82.59
37758;BME280;23599;50.304;18.928;2022-08-21T02:08:48;101115.80;;;22.33;82.63
37758;BME280;23599;50.304;18.928;2022-08-21T02:09:13;101116.86;;;22.32;82.61
37758;BME280;23599;50.304;18.928;2022-08-21T02:09:48;101114.08;;;22.32;82.63
37758;BME280;23599;50.304;18.928;2022-08-21T02:10:27;101109.39;;;22.32;82.71
37758;BME280;23599;50.304;18.928;2022-08-21T02:10:55;101111.11;;;22.33;82.73
37758;BME280;23599;50.304;18.928;2022-08-21T02:11:28;101109.39;;;22.32;82.78
37758;BME280;23599;50.304;18.928;2022-08-21T02:12:36;101109.39;;;22.32;82.77
37758;BME280;23599;50.304;18.928;2022-08-21T02:13:46;101116.00;;;22.31;82.76
37758;BME280;23599;50.304;18.928;2022-08-21T02:14:08;101115.16;;;22.31;82.79
37758;BME280;23599;50.304;18.928;2022-08-21T02:15:09;101113.24;;;22.31;82.83
37758;BME280;23599;50.304;18.928;2022-08-21T02:19:22;101115.80;;;22.33;83.13
37758;BME280;23599;50.304;18.928;2022-08-21T02:20:49;101111.11;;;22.33;83.15
37758;BME280;23599;50.304;18.928;2022-08-21T02:21:22;101107.06;;;22.36;83.15
37758;BME280;23599;50.304;18.928;2022-08-21T02:22:19;101101.29;;;22.38;83.10
37758;BME280;23599;50.304;18.928;2022-08-21T02:25:58;101105.12;;;22.43;82.85
37758;BME280;23599;50.304;18.928;2022-08-21T02:26:12;101107.04;;;22.43;82.83
37758;BME280;23599;50.304;18.928;2022-08-21T02:26:19;101110.66;;;22.43;82.83
37758;BME280;23599;50.304;18.928;2022-08-21T02:26:42;101107.04;;;22.43;82.86
37758;BME280;23599;50.304;18.928;2022-08-21T02:27:00;101104.06;;;22.44;82.90
37758;BME280;23599;50.304;18.928;2022-08-21T02:27:21;101112.38;;;22.44;82.91
37758;BME280;23599;50.304;18.928;2022-08-21T02:29:36;101113.63;;;22.48;82.80
37758;BME280;23599;50.304;18.928;2022-08-21T02:29:56;101112.79;;;22.48;82.80
37758;BME280;23599;50.304;18.928;2022-08-21T02:30:20;101113.63;;;22.48;82.76
37758;BME280;23599;50.304;18.928;2022-08-21T02:31:09;101113.44;;;22.50;82.73
37758;BME280;23599;50.304;18.928;2022-08-21T02:31:25;101112.59;;;22.49;82.73
37758;BME280;23599;50.304;18.928;2022-08-21T02:31:49;101113.23;;;22.51;82.68
37758;BME280;23599;50.304;18.928;2022-08-21T02:32:07;101112.35;;;22.51;82.63
37758;BME280;23599;50.304;18.928;2022-08-21T02:32:53;101113.23;;;22.51;82.60
37758;BME280;23599;50.304;18.928;2022-08-21T02:36:40;101126.65;;;22.54;82.32
37758;BME280;23599;50.304;18.928;2022-08-21T02:37:49;101124.73;;;22.55;82.34
37758;BME280;23599;50.304;18.928;2022-08-21T02:48:40;101114.27;;;22.50;82.05
37758;BME280;23599;50.304;18.928;2022-08-21T02:49:06;101104.28;;;22.49;82.02
37758;BME280;23599;50.304;18.928;2022-08-21T02:49:47;101116.20;;;22.50;82.08
37758;BME280;23599;50.304;18.928;2022-08-21T02:49:55;101109.81;;;22.49;82.13
37758;BME280;23599;50.304;18.928;2022-08-21T02:50:16;101113.63;;;22.48;82.17
37758;BME280;23599;50.304;18.928;2022-08-21T02:50:44;101110.87;;;22.48;82.24
37758;BME280;23599;50.304;18.928;2022-08-21T02:51:06;101112.79;;;22.48;82.29
37758;BME280;23599;50.304;18.928;2022-08-21T02:51:24;101110.87;;;22.48;82.31
37758;BME280;23599;50.304;18.928;2022-08-21T02:51:41;101119.41;;;22.47;82.34
37758;BME280;23599;50.304;18.928;2022-08-21T02:51:57;101118.56;;;22.46;82.38
37758;BME280;23599;50.304;18.928;2022-08-21T02:52:13;101117.68;;;22.46;82.42
37758;BME280;23599;50.304;18.928;2022-08-21T02:52:36;101116.84;;;22.45;82.45
37758;BME280;23599;50.304;18.928;2022-08-21T02:53:00;101117.93;;;22.44;82.49
37758;BME280;23599;50.304;18.928;2022-08-21T02:53:21;101116.20;;;22.43;82.55
37758;BME280;23599;50.304;18.928;2022-08-21T02:53:27;101123.46;;;22.44;82.56
37758;BME280;23599;50.304;18.928;2022-08-21T02:53:47;101127.27;;;22.43;82.60
37758;BME280;23599;50.304;18.928;2022-08-21T02:54:00;101126.43;;;22.43;82.63
37758;BME280;23599;50.304;18.928;2022-08-21T02:54:19;101117.28;;;22.42;82.69
37758;BME280;23599;50.304;18.928;2022-08-21T02:54:35;101126.43;;;22.43;82.72
37758;BME280;23599;50.304;18.928;2022-08-21T02:54:58;101122.81;;;22.42;82.79
37758;BME280;23599;50.304;18.928;2022-08-21T02:55:30;101124.73;;;22.42;82.83
37758;BME280;23599;50.304;18.928;2022-08-21T02:55:50;101122.81;;;22.42;82.86
37758;BME280;23599;50.304;18.928;2022-08-21T02:56:13;101125.38;;;22.44;82.88
37758;BME280;23599;50.304;18.928;2022-08-21T02:56:32;101122.61;;;22.44;82.89
37758;BME280;23599;50.304;18.928;2022-08-21T02:56:33;101126.23;;;22.44;82.90
37758;BME280;23599;50.304;18.928;2022-08-21T02:56:49;101123.46;;;22.44;82.94
37758;BME280;23599;50.304;18.928;2022-08-21T02:57:13;101127.92;;;22.45;82.96
37758;BME280;23599;50.304;18.928;2022-08-21T02:57:28;101121.53;;;22.45;82.95
37758;BME280;23599;50.304;18.928;2022-08-21T02:57:48;101121.53;;;22.45;82.95
37758;BME280;23599;50.304;18.928;2022-08-21T02:58:16;101121.53;;;22.45;82.97
37758;BME280;23599;50.304;18.928;2022-08-21T02:58:44;101133.46;;;22.45;83.02
37758;BME280;23599;50.304;18.928;2022-08-21T02:59:27;101127.71;;;22.47;82.98
37758;BME280;23599;50.304;18.928;2022-08-21T02:59:39;101131.54;;;22.46;82.93
37758;BME280;23599;50.304;18.928;2022-08-21T02:59:50;101124.30;;;22.45;82.89
37758;BME280;23599;50.304;18.928;2022-08-21T02:59:55;101123.23;;;22.46;82.88
37758;BME280;23599;50.304;18.928;2022-08-21T03:00:15;101131.77;;;22.44;82.87
37758;BME280;23599;50.304;18.928;2022-08-21T03:00:41;101120.69;;;22.44;82.85
37758;BME280;23599;50.304;18.928;2022-08-21T03:01:02;101129.00;;;22.44;82.86
37758;BME280;23599;50.304;18.928;2022-08-21T03:01:21;101129.20;;;22.43;82.86
37758;BME280;23599;50.304;18.928;2022-08-21T03:01:39;101128.36;;;22.42;82.88
37758;BME280;23599;50.304;18.928;2022-08-21T03:02:00;101131.13;;;22.42;82.88
37758;BME280;23599;50.304;18.928;2022-08-21T03:02:18;101122.81;;;22.42;82.90
37758;BME280;23599;50.304;18.928;2022-08-21T03:02:37;101133.25;;;22.40;82.94
37758;BME280;23599;50.304;18.928;2022-08-21T03:02:49;101124.09;;;22.40;82.93
37758;BME280;23599;50.304;18.928;2022-08-21T03:03:09;101133.25;;;22.40;82.98
37758;BME280;23599;50.304;18.928;2022-08-21T03:03:26;101127.71;;;22.40;82.99
37758;BME280;23599;50.304;18.928;2022-08-21T03:03:47;101130.48;;;22.40;83.03
37758;BME280;23599;50.304;18.928;2022-08-21T03:04:03;101131.55;;;22.39;83.03
37758;BME280;23599;50.304;18.928;2022-08-21T03:04:22;101128.79;;;22.39;83.05
37758;BME280;23599;50.304;18.928;2022-08-21T03:04:40;101128.79;;;22.39;83.08
37758;BME280;23599;50.304;18.928;2022-08-21T03:05:02;101127.71;;;22.40;83.12
37758;BME280;23599;50.304;18.928;2022-08-21T03:05:23;101131.13;;;22.42;83.15
37758;BME280;23599;50.304;18.928;2022-08-21T03:05:48;101127.51;;;22.42;83.12
37758;BME280;23599;50.304;18.928;2022-08-21T03:06:14;101130.28;;;22.42;83.09
37758;BME280;23599;50.304;18.928;2022-08-21T03:06:36;101132.20;;;22.41;83.07
37758;BME280;23599;50.304;18.928;2022-08-21T03:06:43;101126.66;;;22.41;83.06
37758;BME280;23599;50.304;18.928;2022-08-21T03:06:51;101130.28;;;22.42;83.06
37758;BME280;23599;50.304;18.928;2022-08-21T03:07:23;101124.73;;;22.42;83.04
37758;BME280;23599;50.304;18.928;2022-08-21T03:07:45;101130.28;;;22.42;83.06
37758;BME280;23599;50.304;18.928;2022-08-21T03:08:06;101129.20;;;22.43;83.09
37758;BME280;23599;50.304;18.928;2022-08-21T03:08:23;101131.13;;;22.42;83.10
37758;BME280;23599;50.304;18.928;2022-08-21T03:08:39;101130.28;;;22.42;83.10
37758;BME280;23599;50.304;18.928;2022-08-21T03:08:55;101125.58;;;22.42;83.12
37758;BME280;23599;50.304;18.928;2022-08-21T03:09:15;101125.58;;;22.42;83.12
37758;BME280;23599;50.304;18.928;2022-08-21T03:09:39;101127.27;;;22.43;83.12
37758;BME280;23599;50.304;18.928;2022-08-21T03:09:58;101125.38;;;22.44;83.12
37758;BME280;23599;50.304;18.928;2022-08-21T03:10:08;101125.38;;;22.44;83.12
37758;BME280;23599;50.304;18.928;2022-08-21T03:10:30;101134.55;;;22.44;83.12
37758;BME280;23599;50.304;18.928;2022-08-21T03:10:53;101131.77;;;22.44;83.11
37758;BME280;23599;50.304;18.928;2022-08-21T03:11:10;101128.16;;;22.44;83.09
37758;BME280;23599;50.304;18.928;2022-08-21T03:11:38;101129.00;;;22.44;83.05
37758;BME280;23599;50.304;18.928;2022-08-21T03:11:56;101125.58;;;22.42;83.04
37758;BME280;23599;50.304;18.928;2022-08-21T03:12:17;101133.69;;;22.44;83.03
37758;BME280;23599;50.304;18.928;2022-08-21T03:12:35;101126.66;;;22.41;83.06
37758;BME280;23599;50.304;18.928;2022-08-21T03:12:56;101125.58;;;22.42;83.04
37758;BME280;23599;50.304;18.928;2022-08-21T03:13:23;101127.27;;;22.43;83.10
37758;BME280;23599;50.304;18.928;2022-08-21T03:13:36;101118.96;;;22.43;83.09
37758;BME280;23599;50.304;18.928;2022-08-21T03:14:04;101124.73;;;22.42;83.12
37758;BME280;23599;50.304;18.928;2022-08-21T03:14:40;101127.27;;;22.43;83.17
37758;BME280;23599;50.304;18.928;2022-08-21T03:14:41;101123.01;;;22.41;83.20
37758;BME280;23599;50.304;18.928;2022-08-21T03:14:54;101126.43;;;22.43;83.23
37758;BME280;23599;50.304;18.928;2022-08-21T03:15:11;101127.08;;;22.45;83.28
37758;BME280;23599;50.304;18.928;2022-08-21T03:15:36;101122.38;;;22.45;83.32
37758;BME280;23599;50.304;18.928;2022-08-21T03:16:01;101125.16;;;22.45;83.29
37758;BME280;23599;50.304;18.928;2022-08-21T03:16:21;101126.00;;;22.46;83.25
37758;BME280;23599;50.304;18.928;2022-08-21T03:16:51;101130.26;;;22.48;83.26
37758;BME280;23599;50.304;18.928;2022-08-21T03:16:51;101127.71;;;22.47;83.26
37758;BME280;23599;50.304;18.928;2022-08-21T03:17:10;101131.13;;;22.49;83.25
37758;BME280;23599;50.304;18.928;2022-08-21T03:17:31;101128.36;;;22.49;83.22
37758;BME280;23599;50.304;18.928;2022-08-21T03:17:53;101125.60;;;22.49;83.21
37758;BME280;23599;50.304;18.928;2022-08-21T03:18:10;101125.35;;;22.50;83.20
37758;BME280;23599;50.304;18.928;2022-08-21T03:18:46;101129.86;;;22.51;83.17
37758;BME280;23599;50.304;18.928;2022-08-21T03:19:33;101131.54;;;22.52;83.17
37758;BME280;23599;50.304;18.928;2022-08-21T03:19:44;101136.01;;;22.53;83.16
37758;BME280;23599;50.304;18.928;2022-08-21T03:20:44;101127.70;;;22.53;83.09
37758;BME280;23599;50.304;18.928;2022-08-21T03:21:08;101127.70;;;22.53;83.05
37758;BME280;23599;50.304;18.928;2022-08-21T03:21:30;101134.11;;;22.54;83.03
37758;BME280;23599;50.304;18.928;2022-08-21T03:21:45;101134.11;;;22.54;83.02
37758;BME280;23599;50.304;18.928;2022-08-21T03:22:06;101128.56;;;22.54;83.03
37758;BME280;23599;50.304;18.928;2022-08-21T03:22:35;101130.26;;;22.55;83.06
37758;BME280;23599;50.304;18.928;2022-08-21T03:22:58;101131.34;;;22.54;83.02
37758;BME280;23599;50.304;18.928;2022-08-21T03:23:15;101128.34;;;22.55;83.02
37758;BME280;23599;50.304;18.928;2022-08-21T03:23:34;101132.83;;;22.56;83.04
37758;BME280;23599;50.304;18.928;2022-08-21T03:23:45;101131.96;;;22.56;83.03
37758;BME280;23599;50.304;18.928;2022-08-21T03:24:09;101130.91;;;22.57;83.00
37758;BME280;23599;50.304;18.928;2022-08-21T03:24:37;101131.75;;;22.57;82.94
37758;BME280;23599;50.304;18.928;2022-08-21T03:24:54;101136.21;;;22.58;82.92
37758;BME280;23599;50.304;18.928;2022-08-21T03:25:14;101131.75;;;22.57;82.90
37758;BME280;23599;50.304;18.928;2022-08-21T03:25:36;101131.75;;;22.57;82.88
37758;BME280;23599;50.304;18.928;2022-08-21T03:25:52;101133.45;;;22.58;82.83
37758;BME280;23599;50.304;18.928;2022-08-21T03:26:15;101133.67;;;22.57;82.82
37758;BME280;23599;50.304;18.928;2022-08-21T03:26:30;101137.29;;;22.57;82.85
37758;BME280;23599;50.304;18.928;2022-08-21T03:26:52;101138.98;;;22.58;82.89
37758;BME280;23599;50.304;18.928;2022-08-21T03:27:01;101137.06;;;22.59;82.90
37758;BME280;23599;50.304;18.928;2022-08-21T03:27:27;101136.21;;;22.58;82.92
37758;BME280;23599;50.304;18.928;2022-08-21T03:27:49;101136.21;;;22.58;82.95
37758;BME280;23599;50.304;18.928;2022-08-21T03:28:27;101139.63;;;22.61;82.95
37758;BME280;23599;50.304;18.928;2022-08-21T03:28:38;101144.09;;;22.62;82.93
37758;BME280;23599;50.304;18.928;2022-08-21T03:28:56;101133.01;;;22.62;82.91
37758;BME280;23599;50.304;18.928;2022-08-21T03:29:10;101141.32;;;22.62;82.88
37758;BME280;23599;50.304;18.928;2022-08-21T03:29:29;101134.73;;;22.63;82.84
37758;BME280;23599;50.304;18.928;2022-08-21T03:29:50;101137.50;;;22.63;82.80
37758;BME280;23599;50.304;18.928;2022-08-21T03:30:07;101131.96;;;22.63;82.85
37758;BME280;23599;50.304;18.928;2022-08-21T03:30:13;101135.38;;;22.65;82.79
37758;BME280;23599;50.304;18.928;2022-08-21T03:30:32;101132.60;;;22.65;82.76
37758;BME280;23599;50.304;18.928;2022-08-21T03:30:52;101134.29;;;22.66;82.67
37758;BME280;23599;50.304;18.928;2022-08-21T03:31:13;101136.23;;;22.65;82.64
37758;BME280;23599;50.304;18.928;2022-08-21T03:31:32;101138.98;;;22.65;82.63
37758;BME280;23599;50.304;18.928;2022-08-21T03:31:56;101127.06;;;22.65;82.62
37758;BME280;23599;50.304;18.928;2022-08-21T03:32:12;101135.38;;;22.65;82.57
37758;BME280;23599;50.304;18.928;2022-08-21T03:32:33;101134.50;;;22.64;82.55
37758;BME280;23599;50.304;18.928;2022-08-21T03:32:48;101134.50;;;22.64;82.53
37758;BME280;23599;50.304;18.928;2022-08-21T03:33:05;101138.15;;;22.65;82.54
37758;BME280;23599;50.304;18.928;2022-08-21T03:33:27;101140.03;;;22.64;82.55
37758;BME280;23599;50.304;18.928;2022-08-21T03:33:29;101140.91;;;22.65;82.56
37758;BME280;23599;50.304;18.928;2022-08-21T03:33:54;101137.50;;;22.63;82.54
37758;BME280;23599;50.304;18.928;2022-08-21T03:34:09;101137.50;;;22.63;82.52
37758;BME280;23599;50.304;18.928;2022-08-21T03:34:29;101138.35;;;22.63;82.52
37758;BME280;23599;50.304;18.928;2022-08-21T03:34:46;101138.35;;;22.63;82.50
37758;BME280;23599;50.304;18.928;2022-08-21T03:35:10;101136.41;;;22.64;82.51
37758;BME280;23599;50.304;18.928;2022-08-21T03:35:31;101138.35;;;22.63;82.57
37758;BME280;23599;50.304;18.928;2022-08-21T03:36:01;101144.73;;;22.64;82.56
37758;BME280;23599;50.304;18.928;2022-08-21T03:36:15;101143.04;;;22.63;82.56
37758;BME280;23599;50.304;18.928;2022-08-21T03:36:44;101143.04;;;22.63;82.59
37758;BME280;23599;50.304;18.928;2022-08-21T03:36:46;101126.88;;;22.46;82.59
37758;BME280;23599;50.304;18.928;2022-08-21T03:37:13;101147.51;;;22.64;82.62
37758;BME280;23599;50.304;18.928;2022-08-21T03:38:06;101147.30;;;22.65;82.62
37758;BME280;23599;50.304;18.928;2022-08-21T03:38:26;101145.38;;;22.66;82.65
37758;BME280;23599;50.304;18.928;2022-08-21T03:38:42;101148.15;;;22.66;82.59
37758;BME280;23599;50.304;18.928;2022-08-21T03:38:57;101143.45;;;22.66;82.58
37758;BME280;23599;50.304;18.928;2022-08-21T03:39:20;101146.86;;;22.68;82.58
37758;BME280;23599;50.304;18.928;2022-08-21T03:39:39;101151.57;;;22.68;82.57
37758;BME280;23599;50.304;18.928;2022-08-21T03:40:08;101146.86;;;22.68;82.55
37758;BME280;23599;50.304;18.928;2022-08-21T03:40:24;101153.26;;;22.69;82.53
37758;BME280;23599;50.304;18.928;2022-08-21T03:40:44;101153.05;;;22.70;82.53
37758;BME280;23599;50.304;18.928;2022-08-21T03:41:04;101154.75;;;22.71;82.49
37758;BME280;23599;50.304;18.928;2022-08-21T03:41:24;101158.37;;;22.72;82.45
37758;BME280;23599;50.304;18.928;2022-08-21T03:41:42;101157.32;;;22.73;82.43
37758;BME280;23599;50.304;18.928;2022-08-21T03:41:56;101155.38;;;22.73;82.40
37758;BME280;23599;50.304;18.928;2022-08-21T03:42:37;101159.00;;;22.74;82.39
37758;BME280;23599;50.304;18.928;2022-08-21T03:42:51;101156.23;;;22.74;82.34
37758;BME280;23599;50.304;18.928;2022-08-21T03:43:13;101157.07;;;22.74;82.31
37758;BME280;23599;50.304;18.928;2022-08-21T03:43:27;101157.07;;;22.74;82.29
37758;BME280;23599;50.304;18.928;2022-08-21T03:43:39;101162.42;;;22.76;82.29
37758;BME280;23599;50.304;18.928;2022-08-21T03:43:58;101161.58;;;22.75;82.29
37758;BME280;23599;50.304;18.928;2022-08-21T03:44:32;101162.42;;;22.76;82.26
37758;BME280;23599;50.304;18.928;2022-08-21T03:44:50;101159.65;;;22.76;82.21
37758;BME280;23599;50.304;18.928;2022-08-21T03:45:06;101152.18;;;22.76;82.17
37758;BME280;23599;50.304;18.928;2022-08-21T03:45:30;101149.40;;;22.76;82.18
37758;BME280;23599;50.304;18.928;2022-08-21T03:45:50;101157.72;;;22.76;82.15
37758;BME280;23599;50.304;18.928;2022-08-21T03:46:06;101158.57;;;22.77;82.09
37758;BME280;23599;50.304;18.928;2022-08-21T03:46:27;101162.18;;;22.77;82.07
37758;BME280;23599;50.304;18.928;2022-08-21T03:46:46;101162.18;;;22.77;82.08
37758;BME280;23599;50.304;18.928;2022-08-21T03:46:55;101160.28;;;22.78;82.09
37758;BME280;23599;50.304;18.928;2022-08-21T03:47:17;101165.84;;;22.78;82.09
37758;BME280;23599;50.304;18.928;2022-08-21T03:47:38;101160.28;;;22.78;82.05
37758;BME280;23599;50.304;18.928;2022-08-21T03:47:57;101161.98;;;22.79;82.03
37758;BME280;23599;50.304;18.928;2022-08-21T03:48:20;101157.28;;;22.79;82.01
37758;BME280;23599;50.304;18.928;2022-08-21T03:48:39;101154.51;;;22.79;82.01
37758;BME280;23599;50.304;18.928;2022-08-21T03:49:20;101165.39;;;22.81;82.00
37758;BME280;23599;50.304;18.928;2022-08-21T03:49:46;101165.16;;;22.83;81.97
37758;BME280;23599;50.304;18.928;2022-08-21T03:51:34;101166.89;;;22.84;81.64
37758;BME280;23599;50.304;18.928;2022-08-21T03:52:09;101161.55;;;22.82;81.59
37758;BME280;23599;50.304;18.928;2022-08-21T03:52:31;101164.32;;;22.82;81.60
37758;BME280;23599;50.304;18.928;2022-08-21T03:52:55;101158.77;;;22.82;81.57
37758;BME280;23599;50.304;18.928;2022-08-21T03:53:15;101152.38;;;22.82;81.65
37758;BME280;23599;50.304;18.928;2022-08-21T03:53:45;101165.16;;;22.83;81.56